METAR Data
IDs: Format: Raw Decoded Include TAF

Data at: 2110 UTC 26 May 2019

METAR for:KHAO (Hamilton/Butler Cnty, OH, US)
Text:KHAO 262053Z AUTO 22007KT 10SM BKN070 27/20 A3001 RMK AO2 LTG DSNT SE AND S SLP158 60000 T02720200 55005
Temperature: 27.2°C ( 81°F)
Dewpoint: 20.0°C ( 68°F) [RH = 65%]
Pressure (altimeter):30.01 inches Hg (1016.3 mb) [Sea level pressure: 1015.8 mb]
Winds:from the SW (220 degrees) at 8 MPH (7 knots; 3.6 m/s)
Visibility:10 or more sm (16+ km)
Ceiling:7000 feet AGL
Clouds: broken clouds at 7000 feet AGL
QC Flag:automated observation with no human augmentation